Time;durP1;ratioP1;P1;durP2;ratioP2;P2;SDS_P1;SDS_P2;PMS_P1;PMS_P2;Temp;Humidity;BMP_temperature;BMP_pressure;BME280_temperature;BME280_humidity;BME280_pressure;Samples;Min_cycle;Max_cycle;Signal;HPM_P1;HPM_P2
2024/01/02 00:02:18;;;;;;;5.72;1.60;;;;;;;;;;5090959;28;20267;-67
2024/01/02 00:04:48;;;;;;;3.13;1.65;;;;;;;;;;5090893;28;20200;-67
2024/01/02 00:07:17;;;;;;;1.67;1.40;;;;;;;;;;5061169;28;20187;-67
2024/01/02 00:09:45;;;;;;;2.25;1.48;;;;;;;;;;5092075;28;20195;-67
2024/01/02 00:12:13;;;;;;;4.72;1.45;;;;;;;;;;5092233;28;20213;-67
2024/01/02 00:14:41;;;;;;;5.63;1.63;;;;;;;;;;5092009;28;20192;-67
2024/01/02 00:17:13;;;;;;;3.97;1.77;;;;;;;;;;5074323;28;20207;-67
2024/01/02 00:19:42;;;;;;;3.28;1.80;;;;;;;;;;5091431;28;20569;-68
2024/01/02 00:22:11;;;;;;;2.40;1.25;;;;;;;;;;5091598;28;20251;-67
2024/01/02 00:24:39;;;;;;;2.97;1.35;;;;;;;;;;5092318;28;20222;-67
2024/01/02 00:27:08;;;;;;;1.50;1.25;;;;;;;;;;5091852;28;20207;-66
2024/01/02 00:29:36;;;;;;;2.60;1.30;;;;;;;;;;5092010;28;20589;-68
2024/01/02 00:32:05;;;;;;;3.63;1.55;;;;;;;;;;5073847;28;20195;-67
2024/01/02 00:34:34;;;;;;;5.60;1.70;;;;;;;;;;5090565;28;20213;-67
2024/01/02 00:37:02;;;;;;;2.17;1.25;;;;;;;;;;5091260;28;20678;-67
2024/01/02 00:39:31;;;;;;;2.33;1.42;;;;;;;;;;5091242;28;20203;-67
2024/01/02 00:42:00;;;;;;;2.05;1.35;;;;;;;;;;5091416;28;20604;-67
2024/01/02 00:44:28;;;;;;;5.57;1.40;;;;;;;;;;5091422;28;20221;-67
2024/01/02 00:46:56;;;;;;;2.75;1.00;;;;;;;;;;5091271;28;20270;-67
2024/01/02 00:49:25;;;;;;;3.45;1.25;;;;;;;;;;5073108;28;20203;-67
2024/01/02 00:51:53;;;;;;;7.55;1.48;;;;;;;;;;5091524;28;20191;-67
2024/01/02 00:54:21;;;;;;;1.70;1.10;;;;;;;;;;5091101;28;20202;-69
2024/01/02 00:56:50;;;;;;;1.50;1.00;;;;;;;;;;5091386;28;20222;-68
2024/01/02 00:59:19;;;;;;;4.25;1.83;;;;;;;;;;5090749;28;20205;-68
2024/01/02 01:01:47;;;;;;;3.15;1.40;;;;;;;;;;5091147;28;20209;-69
2024/01/02 01:04:15;;;;;;;2.42;1.85;;;;;;;;;;5089909;28;20199;-69
2024/01/02 01:06:43;;;;;;;3.00;1.15;;;;;;;;;;5072194;28;20199;-69
2024/01/02 01:09:12;;;;;;;2.30;2.05;;;;;;;;;;5090795;28;20203;-69
2024/01/02 01:11:40;;;;;;;2.08;1.00;;;;;;;;;;5073404;28;20211;-69
2024/01/02 01:14:10;;;;;;;2.97;1.20;;;;;;;;;;5091210;28;20206;-68
2024/01/02 01:16:38;;;;;;;3.08;1.02;;;;;;;;;;5073959;28;20202;-69
2024/01/02 01:19:06;;;;;;;5.40;1.42;;;;;;;;;;5073415;28;20199;-69
2024/01/02 01:21:35;;;;;;;2.15;1.00;;;;;;;;;;5090767;28;20196;-69
2024/01/02 01:24:03;;;;;;;0.85;0.80;;;;;;;;;;5090893;28;20203;-66
2024/01/02 01:26:31;;;;;;;1.70;1.10;;;;;;;;;;5091397;28;20207;-68
2024/01/02 01:29:00;;;;;;;3.72;1.10;;;;;;;;;;5090665;28;20207;-67
2024/01/02 01:31:29;;;;;;;2.88;1.48;;;;;;;;;;5091116;28;20203;-67
2024/01/02 01:33:58;;;;;;;1.15;1.00;;;;;;;;;;5090527;28;20205;-67
2024/01/02 01:36:27;;;;;;;1.27;1.15;;;;;;;;;;5090094;28;20922;-67
2024/01/02 01:38:56;;;;;;;1.60;1.10;;;;;;;;;;5072908;28;20225;-66
2024/01/02 01:41:24;;;;;;;2.45;0.98;;;;;;;;;;5073132;28;20227;-66
2024/01/02 01:43:52;;;;;;;1.40;1.10;;;;;;;;;;5090651;28;20241;-67
2024/01/02 01:46:21;;;;;;;3.28;1.20;;;;;;;;;;5090772;28;20202;-67
2024/01/02 01:48:51;;;;;;;3.00;1.33;;;;;;;;;;5090484;28;20191;-66
2024/01/02 01:51:19;;;;;;;0.90;0.90;;;;;;;;;;5072868;28;20192;-66
2024/01/02 01:53:47;;;;;;;2.88;1.23;;;;;;;;;;5090007;28;20195;-67
2024/01/02 01:56:16;;;;;;;2.22;0.98;;;;;;;;;;5090984;28;20199;-67
2024/01/02 01:58:44;;;;;;;1.35;1.15;;;;;;;;;;5090074;28;20225;-67
2024/01/02 02:01:12;;;;;;;4.75;1.50;;;;;;;;;;5071907;28;20210;-68
2024/01/02 02:03:41;;;;;;;2.97;1.10;;;;;;;;;;5071726;28;20206;-70
2024/01/02 02:06:11;;;;;;;3.15;1.00;;;;;;;;;;5093726;28;20267;-67
2024/01/02 02:08:39;;;;;;;2.25;0.90;;;;;;;;;;5076161;28;20196;-66
2024/01/02 02:11:08;;;;;;;5.85;1.30;;;;;;;;;;5094524;28;20203;-67
2024/01/02 02:13:36;;;;;;;6.18;1.20;;;;;;;;;;5094503;28;20215;-67
2024/01/02 02:16:04;;;;;;;1.88;1.00;;;;;;;;;;5093893;28;20218;-68
2024/01/02 02:18:32;;;;;;;1.60;1.00;;;;;;;;;;5093213;28;20218;-67
2024/01/02 02:21:01;;;;;;;2.22;0.93;;;;;;;;;;5075761;28;20211;-67
2024/01/02 02:23:30;;;;;;;2.25;1.00;;;;;;;;;;5093370;28;20195;-66
2024/01/02 02:25:58;;;;;;;1.50;1.13;;;;;;;;;;5093842;28;20653;-68
2024/01/02 02:28:27;;;;;;;1.60;1.15;;;;;;;;;;5093873;28;20264;-67
2024/01/02 02:30:55;;;;;;;1.30;1.10;;;;;;;;;;5093570;28;20256;-67
2024/01/02 02:33:23;;;;;;;1.30;1.10;;;;;;;;;;5059279;28;20207;-67
2024/01/02 02:35:51;;;;;;;2.30;0.85;;;;;;;;;;5092853;28;20662;-67
2024/01/02 02:38:19;;;;;;;3.33;0.93;;;;;;;;;;5093648;28;20218;-67
2024/01/02 02:40:49;;;;;;;1.83;1.50;;;;;;;;;;5093552;28;20713;-67
2024/01/02 02:43:17;;;;;;;4.60;1.08;;;;;;;;;;5093735;28;20203;-69
2024/01/02 02:45:46;;;;;;;2.25;1.10;;;;;;;;;;5077883;28;20227;-68
2024/01/02 02:48:14;;;;;;;1.92;1.00;;;;;;;;;;5074047;28;20200;-67
2024/01/02 02:50:42;;;;;;;1.20;0.90;;;;;;;;;;5091254;28;20658;-67
2024/01/02 02:53:11;;;;;;;1.73;1.08;;;;;;;;;;5093793;28;20674;-71
2024/01/02 02:55:39;;;;;;;3.05;1.27;;;;;;;;;;5093440;28;20195;-67
2024/01/02 02:58:08;;;;;;;4.90;1.17;;;;;;;;;;5093919;28;20574;-67
2024/01/02 03:00:36;;;;;;;17.85;11.55;;;;;;;;;;5092757;28;20199;-67
2024/01/02 03:03:05;;;;;;;29.00;18.55;;;;;;;;;;5093020;28;20202;-68
2024/01/02 03:05:33;;;;;;;11.57;8.13;;;;;;;;;;5092635;28;20195;-67
2024/01/02 03:08:02;;;;;;;9.38;5.10;;;;;;;;;;5075402;28;20681;-67
2024/01/02 03:10:30;;;;;;;2.00;1.55;;;;;;;;;;5093180;28;20237;-68
2024/01/02 03:12:58;;;;;;;2.45;1.05;;;;;;;;;;5094017;28;20207;-68
2024/01/02 03:15:28;;;;;;;2.95;1.10;;;;;;;;;;5093042;28;20199;-68
2024/01/02 03:17:57;;;;;;;1.33;1.08;;;;;;;;;;5093734;28;20685;-68
2024/01/02 03:20:25;;;;;;;2.20;1.00;;;;;;;;;;5093190;28;20269;-69
2024/01/02 03:22:55;;;;;;;1.33;1.00;;;;;;;;;;5093348;28;20199;-68
2024/01/02 03:25:23;;;;;;;1.42;0.95;;;;;;;;;;5093185;28;20300;-67
2024/01/02 03:27:51;;;;;;;2.15;0.90;;;;;;;;;;5093207;28;20211;-68
2024/01/02 03:30:20;;;;;;;2.05;1.10;;;;;;;;;;5092603;28;20551;-68
2024/01/02 03:32:49;;;;;;;1.98;1.25;;;;;;;;;;5075594;28;20236;-67
2024/01/02 03:35:17;;;;;;;1.42;1.17;;;;;;;;;;5074278;28;20199;-68
2024/01/02 03:37:45;;;;;;;1.35;1.00;;;;;;;;;;5093364;28;20558;-67
2024/01/02 03:40:14;;;;;;;1.65;1.00;;;;;;;;;;5092564;28;20217;-68
2024/01/02 03:42:42;;;;;;;1.20;0.90;;;;;;;;;;5093634;28;20192;-68
2024/01/02 03:45:11;;;;;;;2.67;0.80;;;;;;;;;;5092091;28;20280;-71
2024/01/02 03:47:39;;;;;;;2.88;1.20;;;;;;;;;;5092843;28;20209;-67
2024/01/02 03:50:09;;;;;;;1.70;0.93;;;;;;;;;;5092121;28;20217;-67
2024/01/02 03:52:38;;;;;;;0.93;0.93;;;;;;;;;;5093301;28;20203;-68
2024/01/02 03:55:06;;;;;;;0.95;0.90;;;;;;;;;;5092940;28;20203;-69
2024/01/02 03:57:34;;;;;;;1.00;1.00;;;;;;;;;;5092427;28;20206;-68
2024/01/02 04:00:04;;;;;;;0.80;0.80;;;;;;;;;;5074715;28;20223;-67
2024/01/02 04:02:32;;;;;;;1.60;0.90;;;;;;;;;;5091554;28;20615;-68
2024/01/02 04:05:01;;;;;;;1.63;0.90;;;;;;;;;;5091915;28;20217;-67
2024/01/02 04:07:30;;;;;;;1.70;0.70;;;;;;;;;;5091641;28;20209;-67
2024/01/02 04:09:58;;;;;;;1.45;1.10;;;;;;;;;;5092283;28;20199;-68
2024/01/02 04:12:26;;;;;;;2.80;1.10;;;;;;;;;;5092470;28;20207;-68
2024/01/02 04:14:55;;;;;;;1.08;0.95;;;;;;;;;;5092393;28;20217;-66
2024/01/02 04:17:23;;;;;;;1.08;0.98;;;;;;;;;;5092768;28;20209;-67
2024/01/02 04:19:51;;;;;;;4.53;1.00;;;;;;;;;;5092622;28;20225;-68
2024/01/02 04:22:19;;;;;;;1.00;0.90;;;;;;;;;;5092530;28;20607;-66
2024/01/02 04:24:49;;;;;;;5.10;0.90;;;;;;;;;;5092961;28;20646;-67
2024/01/02 04:27:17;;;;;;;0.90;0.70;;;;;;;;;;5092990;28;20198;-67
2024/01/02 04:29:45;;;;;;;1.33;1.05;;;;;;;;;;5092866;28;20197;-67
2024/01/02 04:32:13;;;;;;;1.00;0.90;;;;;;;;;;5092928;28;20551;-68
2024/01/02 04:34:42;;;;;;;2.45;0.88;;;;;;;;;;5074656;28;20199;-69
2024/01/02 04:37:10;;;;;;;11.65;1.35;;;;;;;;;;5057884;28;20207;-69
2024/01/02 04:39:38;;;;;;;1.30;0.75;;;;;;;;;;5092754;28;20233;-68
2024/01/02 04:42:08;;;;;;;4.10;0.80;;;;;;;;;;5074797;28;20222;-68
2024/01/02 04:44:36;;;;;;;1.60;0.93;;;;;;;;;;5091639;28;20235;-69
2024/01/02 04:47:04;;;;;;;1.05;0.82;;;;;;;;;;5092631;28;20647;-68
2024/01/02 04:49:33;;;;;;;0.70;0.70;;;;;;;;;;5075019;28;20207;-68
2024/01/02 04:52:01;;;;;;;1.00;0.90;;;;;;;;;;5091987;28;20661;-68
2024/01/02 04:54:29;;;;;;;1.88;0.70;;;;;;;;;;5091766;28;20199;-68
2024/01/02 04:56:58;;;;;;;2.05;0.80;;;;;;;;;;5092379;28;20203;-68
2024/01/02 04:59:27;;;;;;;1.17;0.70;;;;;;;;;;5092155;28;20279;-68
2024/01/02 05:01:55;;;;;;;1.88;0.73;;;;;;;;;;5092037;28;20195;-67
2024/01/02 05:04:23;;;;;;;1.23;0.80;;;;;;;;;;5088711;28;20195;-68
2024/01/02 05:06:52;;;;;;;1.10;0.80;;;;;;;;;;5091177;28;20199;-69
2024/01/02 05:09:20;;;;;;;6.47;0.80;;;;;;;;;;5092228;28;20199;-68
2024/01/02 05:11:48;;;;;;;4.72;0.88;;;;;;;;;;5093482;28;20199;-69
2024/01/02 05:14:17;;;;;;;0.70;0.70;;;;;;;;;;5092603;28;20213;-67
2024/01/02 05:16:47;;;;;;;3.03;0.60;;;;;;;;;;5075133;28;20214;-69
2024/01/02 05:19:15;;;;;;;2.80;0.90;;;;;;;;;;5092038;28;20703;-69
2024/01/02 05:21:43;;;;;;;0.90;0.65;;;;;;;;;;5092723;28;20192;-68
2024/01/02 05:24:11;;;;;;;0.70;0.70;;;;;;;;;;5090764;28;20199;-68
2024/01/02 05:26:40;;;;;;;0.60;0.60;;;;;;;;;;5092340;28;20215;-68
2024/01/02 05:29:08;;;;;;;0.77;0.70;;;;;;;;;;5073415;28;20688;-68
2024/01/02 05:31:36;;;;;;;0.50;0.50;;;;;;;;;;5073648;28;20681;-68
2024/01/02 05:34:06;;;;;;;0.70;0.60;;;;;;;;;;5091507;28;20206;-68
2024/01/02 05:36:34;;;;;;;1.45;0.85;;;;;;;;;;5092038;28;20207;-68
2024/01/02 05:39:03;;;;;;;2.85;0.60;;;;;;;;;;5074301;28;20214;-69
2024/01/02 05:41:32;;;;;;;0.52;0.50;;;;;;;;;;5078708;28;20588;-68
2024/01/02 05:44:00;;;;;;;0.82;0.60;;;;;;;;;;5096369;28;20227;-68
2024/01/02 05:46:28;;;;;;;2.15;0.77;;;;;;;;;;5096719;28;20192;-68
2024/01/02 05:48:56;;;;;;;1.30;0.70;;;;;;;;;;5096549;28;20195;-68
2024/01/02 05:51:26;;;;;;;0.90;0.68;;;;;;;;;;5096316;28;20207;-68
2024/01/02 05:53:54;;;;;;;0.98;0.85;;;;;;;;;;5096035;28;20210;-68
2024/01/02 05:56:22;;;;;;;0.60;0.50;;;;;;;;;;5096791;28;20195;-68
2024/01/02 05:58:51;;;;;;;2.15;0.60;;;;;;;;;;5095623;28;20580;-70
2024/01/02 06:01:19;;;;;;;0.70;0.60;;;;;;;;;;5095111;28;20206;-68
2024/01/02 06:03:48;;;;;;;0.63;0.63;;;;;;;;;;5093507;28;20209;-72
2024/01/02 06:06:16;;;;;;;1.05;0.65;;;;;;;;;;5091999;28;20203;-72
2024/01/02 06:08:46;;;;;;;1.40;0.60;;;;;;;;;;5091736;28;20692;-72
2024/01/02 06:11:14;;;;;;;1.20;1.00;;;;;;;;;;5090047;28;20203;-72
2024/01/02 06:13:44;;;;;;;0.68;0.57;;;;;;;;;;5076771;28;20203;-71
2024/01/02 06:16:12;;;;;;;0.70;0.57;;;;;;;;;;5093358;28;20191;-71
2024/01/02 06:18:40;;;;;;;0.70;0.70;;;;;;;;;;5093308;28;20207;-72
2024/01/02 06:21:08;;;;;;;1.63;0.60;;;;;;;;;;5093816;28;20223;-72
2024/01/02 06:23:37;;;;;;;0.70;0.70;;;;;;;;;;5093920;28;20205;-72
2024/01/02 06:26:06;;;;;;;1.60;0.60;;;;;;;;;;5093055;28;20235;-72
2024/01/02 06:28:34;;;;;;;0.60;0.60;;;;;;;;;;5075296;28;20199;-72
2024/01/02 06:31:05;;;;;;;0.80;0.70;;;;;;;;;;5087174;28;20675;-71
2024/01/02 06:33:33;;;;;;;1.55;0.70;;;;;;;;;;5092788;28;20200;-71
2024/01/02 06:36:02;;;;;;;0.73;0.60;;;;;;;;;;5093018;28;20211;-71
2024/01/02 06:38:30;;;;;;;2.00;0.60;;;;;;;;;;5092881;28;20248;-71
2024/01/02 06:41:00;;;;;;;0.70;0.70;;;;;;;;;;5071937;28;20232;-71
2024/01/02 06:43:29;;;;;;;0.63;0.63;;;;;;;;;;5072214;28;20256;-71
2024/01/02 06:45:58;;;;;;;0.70;0.70;;;;;;;;;;5073477;28;20214;-70
2024/01/02 06:48:26;;;;;;;0.98;0.65;;;;;;;;;;5072966;28;20214;-70
2024/01/02 06:50:54;;;;;;;0.80;0.60;;;;;;;;;;5072164;28;20207;-70
2024/01/02 06:53:22;;;;;;;0.80;0.60;;;;;;;;;;5073076;28;20200;-70
2024/01/02 06:55:50;;;;;;;1.77;1.02;;;;;;;;;;5073332;28;20208;-70
2024/01/02 06:58:19;;;;;;;0.60;0.60;;;;;;;;;;5072569;28;20202;-70
2024/01/02 07:00:48;;;;;;;0.65;0.65;;;;;;;;;;5071369;28;20739;-71
2024/01/02 07:03:17;;;;;;;1.20;0.77;;;;;;;;;;5071521;28;20240;-71
2024/01/02 07:05:46;;;;;;;1.70;0.60;;;;;;;;;;5071929;28;20200;-70
2024/01/02 07:08:14;;;;;;;1.88;0.60;;;;;;;;;;5071779;28;20204;-71
2024/01/02 07:10:42;;;;;;;1.80;0.73;;;;;;;;;;5070365;28;20594;-70
2024/01/02 07:13:10;;;;;;;0.52;0.52;;;;;;;;;;5073442;28;20276;-71
2024/01/02 07:15:39;;;;;;;0.60;0.60;;;;;;;;;;5072019;28;20215;-70
2024/01/02 07:18:09;;;;;;;0.98;0.73;;;;;;;;;;5071892;28;20192;-72
2024/01/02 07:20:37;;;;;;;1.33;0.70;;;;;;;;;;5072343;28;20207;-70
2024/01/02 07:23:06;;;;;;;1.50;0.60;;;;;;;;;;5075618;28;20665;-74
2024/01/02 07:25:34;;;;;;;1.08;0.98;;;;;;;;;;5055676;28;20527;-73
2024/01/02 07:28:03;;;;;;;0.68;0.60;;;;;;;;;;5071061;28;20199;-70
2024/01/02 07:30:31;;;;;;;1.25;0.80;;;;;;;;;;5071602;28;20204;-73
2024/01/02 07:32:59;;;;;;;0.65;0.65;;;;;;;;;;5072149;28;20208;-72
2024/01/02 07:35:29;;;;;;;0.70;0.70;;;;;;;;;;5072135;28;20196;-74
2024/01/02 07:37:57;;;;;;;0.80;0.70;;;;;;;;;;5072908;28;20542;-73
2024/01/02 07:40:25;;;;;;;0.68;0.68;;;;;;;;;;5075079;28;20247;-74
2024/01/02 07:42:53;;;;;;;1.00;0.63;;;;;;;;;;5093369;28;20184;-73
2024/01/02 07:45:21;;;;;;;1.90;0.73;;;;;;;;;;5091774;28;20223;-73
2024/01/02 07:47:50;;;;;;;0.60;0.50;;;;;;;;;;5093172;28;20199;-74
2024/01/02 07:50:18;;;;;;;1.45;0.65;;;;;;;;;;5091674;28;20206;-75
2024/01/02 07:52:48;;;;;;;0.60;0.60;;;;;;;;;;5092621;28;20199;-74
2024/01/02 07:55:17;;;;;;;0.75;0.73;;;;;;;;;;5092369;28;20203;-73
2024/01/02 07:57:45;;;;;;;1.80;1.00;;;;;;;;;;5072789;28;20748;-74
2024/01/02 08:00:14;;;;;;;0.80;0.63;;;;;;;;;;5092130;28;20241;-71
2024/01/02 08:02:42;;;;;;;0.63;0.63;;;;;;;;;;5093623;28;20203;-70
2024/01/02 08:05:10;;;;;;;0.60;0.60;;;;;;;;;;5101624;28;20324;-73
2024/01/02 08:07:39;;;;;;;0.70;0.70;;;;;;;;;;5088886;28;21441;-74
2024/01/02 08:10:09;;;;;;;2.45;0.90;;;;;;;;;;5091730;28;20680;-72
2024/01/02 08:12:38;;;;;;;1.75;0.70;;;;;;;;;;5091777;28;20184;-73
2024/01/02 08:15:06;;;;;;;0.70;0.70;;;;;;;;;;5091625;28;20259;-73
2024/01/02 08:17:34;;;;;;;2.47;0.85;;;;;;;;;;5074016;28;20238;-74
2024/01/02 08:20:03;;;;;;;3.20;0.60;;;;;;;;;;5073406;28;20207;-73
2024/01/02 08:22:31;;;;;;;1.20;0.60;;;;;;;;;;5073265;28;20575;-73
2024/01/02 08:24:59;;;;;;;1.40;0.80;;;;;;;;;;5092220;28;20199;-74
2024/01/02 08:27:29;;;;;;;0.80;0.60;;;;;;;;;;5093646;28;20230;-74
2024/01/02 08:29:59;;;;;;;0.80;0.80;;;;;;;;;;5093237;28;20203;-73
2024/01/02 08:32:28;;;;;;;1.95;0.90;;;;;;;;;;5075773;28;20207;-74
2024/01/02 08:34:57;;;;;;;0.70;0.63;;;;;;;;;;5092880;28;20738;-74
2024/01/02 08:37:25;;;;;;;0.60;0.60;;;;;;;;;;5091780;28;20217;-72
2024/01/02 08:39:53;;;;;;;1.02;0.60;;;;;;;;;;5073365;28;20199;-73
2024/01/02 08:42:22;;;;;;;1.10;0.70;;;;;;;;;;5092152;28;20291;-74
2024/01/02 08:44:51;;;;;;;1.85;0.75;;;;;;;;;;5091666;28;20697;-74
2024/01/02 08:47:20;;;;;;;1.88;0.70;;;;;;;;;;5056977;28;20252;-73
2024/01/02 08:49:48;;;;;;;1.08;0.65;;;;;;;;;;5073340;28;20199;-73
2024/01/02 08:52:16;;;;;;;0.60;0.60;;;;;;;;;;5092341;28;20531;-73
2024/01/02 08:54:44;;;;;;;2.00;0.70;;;;;;;;;;5073109;28;20207;-73
2024/01/02 08:57:13;;;;;;;0.60;0.60;;;;;;;;;;5090930;28;20188;-73
2024/01/02 08:59:41;;;;;;;1.23;0.88;;;;;;;;;;5072344;28;20202;-71
2024/01/02 09:02:10;;;;;;;1.00;0.70;;;;;;;;;;5072830;28;20215;-72
2024/01/02 09:04:39;;;;;;;0.57;0.55;;;;;;;;;;5090531;28;20540;-72
2024/01/02 09:07:07;;;;;;;0.60;0.60;;;;;;;;;;5091131;28;20270;-76
2024/01/02 09:09:35;;;;;;;1.23;0.73;;;;;;;;;;5074872;28;20236;-74
2024/01/02 09:12:03;;;;;;;0.60;0.60;;;;;;;;;;5074993;28;20198;-74
2024/01/02 09:14:32;;;;;;;0.60;0.60;;;;;;;;;;5093518;28;20299;-73
2024/01/02 09:17:00;;;;;;;0.50;0.50;;;;;;;;;;5108228;28;20213;-73
2024/01/02 09:19:30;;;;;;;0.93;0.50;;;;;;;;;;5091067;28;20271;-72
2024/01/02 09:21:58;;;;;;;0.70;0.70;;;;;;;;;;5090965;28;20219;-73
2024/01/02 09:24:26;;;;;;;0.80;0.60;;;;;;;;;;5073689;28;20559;-75
2024/01/02 09:26:55;;;;;;;1.95;0.70;;;;;;;;;;5074184;28;20232;-73
2024/01/02 09:29:24;;;;;;;0.60;0.60;;;;;;;;;;5076069;28;20286;-73
2024/01/02 09:31:52;;;;;;;2.05;0.70;;;;;;;;;;5056905;28;20255;-74
2024/01/02 09:34:21;;;;;;;0.60;0.52;;;;;;;;;;5058882;28;20636;-73
2024/01/02 09:36:51;;;;;;;0.60;0.60;;;;;;;;;;5085204;28;20207;-73
2024/01/02 09:39:19;;;;;;;0.75;0.75;;;;;;;;;;5090850;28;20207;-72
2024/01/02 09:41:56;;;;;;;0.88;0.60;;;;;;;;;;5088969;28;20716;-73
2024/01/02 09:44:32;;;;;;;1.00;0.80;;;;;;;;;;5090354;28;20283;-73
2024/01/02 09:47:10;;;;;;;0.60;0.50;;;;;;;;;;5071528;28;20192;-73
2024/01/02 09:49:50;;;;;;;0.90;0.70;;;;;;;;;;5090948;28;20539;-73
2024/01/02 09:52:31;;;;;;;0.60;0.60;;;;;;;;;;5072090;28;20187;-73
2024/01/02 09:55:04;;;;;;;0.60;0.60;;;;;;;;;;5072573;28;20585;-73
2024/01/02 09:57:37;;;;;;;1.00;0.70;;;;;;;;;;5090885;28;20630;-71
2024/01/02 10:00:06;;;;;;;0.82;0.70;;;;;;;;;;5072931;28;20194;-71
2024/01/02 10:02:52;;;;;;;0.50;0.50;;;;;;;;;;5089883;28;20218;-73
2024/01/02 10:05:27;;;;;;;0.90;0.60;;;;;;;;;;5089452;28;20195;-73
2024/01/02 10:08:06;;;;;;;0.60;0.60;;;;;;;;;;5084406;28;20203;-73
2024/01/02 10:10:36;;;;;;;1.58;0.65;;;;;;;;;;5068643;28;20183;-72
2024/01/02 10:13:23;;;;;;;1.45;0.70;;;;;;;;;;5081773;28;20697;-72
2024/01/02 10:15:57;;;;;;;0.70;0.70;;;;;;;;;;5087645;28;20203;-71
2024/01/02 10:18:32;;;;;;;1.25;0.80;;;;;;;;;;5089721;28;20199;-72
2024/01/02 10:21:05;;;;;;;0.70;0.70;;;;;;;;;;5091445;28;20215;-71
2024/01/02 10:23:39;;;;;;;0.70;0.70;;;;;;;;;;5077611;28;20206;-72
2024/01/02 10:26:09;;;;;;;0.93;0.75;;;;;;;;;;5093546;28;20190;-71
2024/01/02 10:28:38;;;;;;;0.60;0.60;;;;;;;;;;5091416;28;20222;-72
2024/01/02 10:31:11;;;;;;;0.60;0.60;;;;;;;;;;5093803;28;20210;-72
2024/01/02 10:33:40;;;;;;;2.00;1.00;;;;;;;;;;5076288;28;20574;-70
2024/01/02 10:36:11;;;;;;;1.65;0.80;;;;;;;;;;5093438;28;20199;-71
2024/01/02 10:39:01;;;;;;;1.77;0.80;;;;;;;;;;5093568;28;20205;-72
2024/01/02 10:41:36;;;;;;;0.88;0.82;;;;;;;;;;5077744;28;20280;-72
2024/01/02 10:44:06;;;;;;;1.13;0.90;;;;;;;;;;5079267;28;20253;-72
2024/01/02 10:46:39;;;;;;;1.35;0.80;;;;;;;;;;5064640;28;20577;-72
2024/01/02 10:49:12;;;;;;;0.65;0.65;;;;;;;;;;5085919;28;20299;-74
2024/01/02 10:51:41;;;;;;;0.85;0.80;;;;;;;;;;5095989;28;20213;-71
2024/01/02 10:54:17;;;;;;;0.60;0.60;;;;;;;;;;5095085;28;20203;-73
2024/01/02 10:56:50;;;;;;;1.02;0.60;;;;;;;;;;5075035;28;20198;-73
2024/01/02 10:59:29;;;;;;;0.60;0.60;;;;;;;;;;5082406;28;20581;-74
2024/01/02 11:02:01;;;;;;;2.60;1.05;;;;;;;;;;5065641;28;20225;-73
2024/01/02 11:04:38;;;;;;;1.33;0.90;;;;;;;;;;5091748;28;20604;-73
2024/01/02 11:07:07;;;;;;;0.70;0.70;;;;;;;;;;5091690;28;20247;-73
2024/01/02 11:09:43;;;;;;;1.77;0.88;;;;;;;;;;5071644;28;20203;-73
2024/01/02 11:12:12;;;;;;;1.77;1.00;;;;;;;;;;5085058;28;20683;-71
2024/01/02 11:14:42;;;;;;;0.68;0.68;;;;;;;;;;5084461;28;20210;-74
2024/01/02 11:17:12;;;;;;;0.80;0.80;;;;;;;;;;5091111;28;20203;-74
2024/01/02 11:19:42;;;;;;;0.88;0.88;;;;;;;;;;5064341;28;20184;-70
2024/01/02 11:22:12;;;;;;;0.80;0.70;;;;;;;;;;5092485;28;20598;-74
2024/01/02 11:24:46;;;;;;;1.13;0.85;;;;;;;;;;5073628;28;20192;-71
2024/01/02 11:27:15;;;;;;;0.75;0.75;;;;;;;;;;5080796;28;20204;-73
2024/01/02 11:29:43;;;;;;;0.80;0.70;;;;;;;;;;5077606;28;20602;-74
2024/01/02 11:32:17;;;;;;;1.55;0.70;;;;;;;;;;5072539;28;20248;-73
2024/01/02 11:34:57;;;;;;;1.00;0.90;;;;;;;;;;5084932;28;20550;-73
2024/01/02 11:37:30;;;;;;;1.35;0.68;;;;;;;;;;5065936;28;20192;-73
2024/01/02 11:40:04;;;;;;;0.80;0.80;;;;;;;;;;5055471;28;20573;-73
2024/01/02 11:42:39;;;;;;;3.15;0.90;;;;;;;;;;5065783;28;20204;-73
2024/01/02 11:45:10;;;;;;;2.15;0.98;;;;;;;;;;5059739;28;20217;-73
2024/01/02 11:47:42;;;;;;;0.77;0.77;;;;;;;;;;5054843;28;20188;-73
2024/01/02 11:50:11;;;;;;;0.90;0.90;;;;;;;;;;5040692;28;20619;-71
2024/01/02 11:52:46;;;;;;;0.98;0.70;;;;;;;;;;5030989;28;20249;-72
2024/01/02 11:55:20;;;;;;;1.88;0.70;;;;;;;;;;5067202;28;20567;-73
2024/01/02 11:57:52;;;;;;;0.70;0.70;;;;;;;;;;5070235;28;20540;-73
2024/01/02 12:00:24;;;;;;;0.90;0.68;;;;;;;;;;5044925;28;20192;-74
2024/01/02 12:02:59;;;;;;;2.10;0.80;;;;;;;;;;5061528;28;20680;-73
2024/01/02 12:05:37;;;;;;;0.70;0.70;;;;;;;;;;5066690;28;20226;-74
2024/01/02 12:08:08;;;;;;;0.80;0.60;;;;;;;;;;5036735;28;20196;-73
2024/01/02 12:10:38;;;;;;;2.90;0.77;;;;;;;;;;5060392;28;20192;-74
2024/01/02 12:13:12;;;;;;;0.90;0.90;;;;;;;;;;5050526;28;20188;-74
2024/01/02 12:15:42;;;;;;;1.08;0.80;;;;;;;;;;5070359;28;20196;-73
2024/01/02 12:18:11;;;;;;;0.80;0.80;;;;;;;;;;5071098;28;20272;-73
2024/01/02 12:20:42;;;;;;;1.05;0.90;;;;;;;;;;5051987;28;20204;-73
2024/01/02 12:23:10;;;;;;;1.58;0.85;;;;;;;;;;5065345;28;20215;-73
2024/01/02 12:25:41;;;;;;;0.88;0.88;;;;;;;;;;5071913;28;20196;-74
2024/01/02 12:28:09;;;;;;;0.90;0.90;;;;;;;;;;5070902;28;20203;-74
2024/01/02 12:30:43;;;;;;;0.90;0.90;;;;;;;;;;5049100;28;20200;-73
2024/01/02 12:33:14;;;;;;;1.05;1.00;;;;;;;;;;5043193;28;20245;-73
2024/01/02 12:35:48;;;;;;;0.88;0.88;;;;;;;;;;5064247;28;20193;-73
2024/01/02 12:38:18;;;;;;;1.00;1.00;;;;;;;;;;5060337;28;20715;-74
2024/01/02 12:40:48;;;;;;;2.72;0.80;;;;;;;;;;5054192;28;20597;-74
2024/01/02 12:43:20;;;;;;;0.95;0.95;;;;;;;;;;5086898;28;20207;-73
2024/01/02 12:45:51;;;;;;;1.10;0.90;;;;;;;;;;5085552;28;20222;-73
2024/01/02 12:48:23;;;;;;;0.70;0.70;;;;;;;;;;5083514;28;20184;-73
2024/01/02 12:50:52;;;;;;;2.13;2.03;;;;;;;;;;5087146;28;20661;-73
2024/01/02 12:53:22;;;;;;;1.02;0.90;;;;;;;;;;5085296;28;20225;-73
2024/01/02 12:55:54;;;;;;;0.90;0.90;;;;;;;;;;5056837;28;20205;-74
2024/01/02 12:58:25;;;;;;;1.15;0.65;;;;;;;;;;5071671;28;20211;-73
2024/01/02 13:00:53;;;;;;;1.60;0.80;;;;;;;;;;5091043;28;20195;-73
2024/01/02 13:03:23;;;;;;;7.50;4.53;;;;;;;;;;5089968;28;20272;-73
2024/01/02 13:05:51;;;;;;;1.42;1.33;;;;;;;;;;5090360;28;20213;-73
2024/01/02 13:08:20;;;;;;;2.30;2.03;;;;;;;;;;5090841;28;20199;-74
2024/01/02 13:10:49;;;;;;;3.00;0.90;;;;;;;;;;5091165;28;20211;-74
2024/01/02 13:13:19;;;;;;;1.80;0.90;;;;;;;;;;5090545;28;20207;-72
2024/01/02 13:15:52;;;;;;;2.05;0.80;;;;;;;;;;5091150;28;20213;-73
2024/01/02 13:18:21;;;;;;;0.95;0.95;;;;;;;;;;5090792;28;20573;-73
2024/01/02 13:20:51;;;;;;;0.93;0.88;;;;;;;;;;5061645;28;20566;-73
2024/01/02 13:23:19;;;;;;;1.10;1.00;;;;;;;;;;5056890;28;20218;-73
2024/01/02 13:25:47;;;;;;;1.25;1.10;;;;;;;;;;5091347;28;20199;-74
2024/01/02 13:28:21;;;;;;;1.08;0.82;;;;;;;;;;5090978;28;20203;-74
2024/01/02 13:30:50;;;;;;;1.25;0.88;;;;;;;;;;5091571;28;20194;-73
2024/01/02 13:33:19;;;;;;;0.80;0.80;;;;;;;;;;5090681;28;20207;-74
2024/01/02 13:36:00;;;;;;;1.73;1.00;;;;;;;;;;5069014;28;20196;-74
2024/01/02 13:38:29;;;;;;;0.88;0.70;;;;;;;;;;5090449;28;20196;-74
2024/01/02 13:41:04;;;;;;;1.08;1.08;;;;;;;;;;5091200;28;20227;-74
2024/01/02 13:43:34;;;;;;;4.53;1.10;;;;;;;;;;5072562;28;20203;-74
2024/01/02 13:46:10;;;;;;;1.27;1.20;;;;;;;;;;5090838;28;20199;-72
2024/01/02 13:48:39;;;;;;;1.25;1.15;;;;;;;;;;5090358;28;20187;-75
2024/01/02 13:51:08;;;;;;;0.73;0.73;;;;;;;;;;5072812;28;20191;-73
2024/01/02 13:53:51;;;;;;;4.40;1.10;;;;;;;;;;5090994;28;20206;-73
2024/01/02 13:56:19;;;;;;;1.10;1.00;;;;;;;;;;5090928;28;20523;-73
2024/01/02 13:58:58;;;;;;;1.83;1.20;;;;;;;;;;5090168;28;20196;-74
2024/01/02 14:01:30;;;;;;;2.45;1.23;;;;;;;;;;5092858;28;20551;-73
2024/01/02 14:03:58;;;;;;;1.00;1.00;;;;;;;;;;5088941;28;20211;-73
2024/01/02 14:06:27;;;;;;;2.60;2.40;;;;;;;;;;5093875;28;20203;-74
2024/01/02 14:09:14;;;;;;;1.15;1.05;;;;;;;;;;5094225;28;20650;-74
2024/01/02 14:11:52;;;;;;;2.10;2.00;;;;;;;;;;5076872;28;20198;-73
2024/01/02 14:14:27;;;;;;;1.30;1.23;;;;;;;;;;5094277;28;20591;-73
2024/01/02 14:16:58;;;;;;;1.33;1.20;;;;;;;;;;5075983;28;20195;-74
2024/01/02 14:19:28;;;;;;;2.05;1.20;;;;;;;;;;5091296;28;20180;-74
2024/01/02 14:21:59;;;;;;;1.33;1.20;;;;;;;;;;5091232;28;20623;-74
2024/01/02 14:24:33;;;;;;;2.95;1.02;;;;;;;;;;5093889;28;20203;-74
2024/01/02 14:27:06;;;;;;;1.08;0.98;;;;;;;;;;5094061;28;20192;-74
2024/01/02 14:29:41;;;;;;;2.40;1.20;;;;;;;;;;5093045;28;20183;-72
2024/01/02 14:32:15;;;;;;;1.67;1.10;;;;;;;;;;5088002;28;20248;-74
2024/01/02 14:34:48;;;;;;;1.45;1.35;;;;;;;;;;5074764;28;20566;-73
2024/01/02 14:37:23;;;;;;;1.70;0.90;;;;;;;;;;5074171;28;20217;-74
2024/01/02 14:40:04;;;;;;;1.63;1.52;;;;;;;;;;5086767;28;20211;-73
2024/01/02 14:42:37;;;;;;;1.27;1.17;;;;;;;;;;5071542;28;20191;-74
2024/01/02 14:45:11;;;;;;;0.93;0.77;;;;;;;;;;5070514;28;20220;-73
2024/01/02 14:47:45;;;;;;;2.40;1.10;;;;;;;;;;5071812;28;20196;-74
2024/01/02 14:50:20;;;;;;;1.02;0.90;;;;;;;;;;5072230;28;20565;-73
2024/01/02 14:53:06;;;;;;;1.10;1.00;;;;;;;;;;5071828;28;20188;-74
2024/01/02 14:55:36;;;;;;;1.27;1.20;;;;;;;;;;5072491;28;20185;-74
2024/01/02 14:58:08;;;;;;;1.73;1.40;;;;;;;;;;5072925;28;20550;-74
2024/01/02 15:00:39;;;;;;;0.90;0.90;;;;;;;;;;5072049;28;20188;-74